Pagrindinis puslapis
METAR-TAF:

METAR-TAF

Oro uostai :

Palembangas, Indonezija

platuma: 02-54S, ilguma: 104-42E, Aukštis: 10 m

Dabartinis oras

Ataskaita buvo paskelbta 27 minutes, ne 00:30 UTC
Vėjas 7 kt iš Šiaurės/Šiaurės Vakarų
Temperatūra 25°C
Drėgmė 94%
Slėgis 1008 hPa
Matomumas: 8000 m
Mažai debesys ne aukštis 1000 ft

METAR: WIPP 260030Z 34007KT 8000 FEW010 25/24 Q1008 NOSIG

Laikas: 07:57 (00:57 UTC)

Prognozė

Ataskaita buvo paskelbta 1 valandą ir 57 minutes, ne 23:00 UTC
Prognozė galioja nuo 26 metu 00 UTC su 26 metu 24 UTC
Vėjas 5 kt iš Šiaurės
Matomumas 10 km arba daugiau
Išsisklaidę debesys ne aukštis 1000 ft
Laikinai
nuo 26 metu 04 UTC su 26 metu 08 UTC
Su prošvaistėmis ne aukštis 1000 ft
Laikinai
nuo 26 metu 21 UTC su 26 metu 24 UTC
Matomumas: 3000 m
rūkana

TAF: WIPP 252300Z 2600/2624 35005KT 9999 SCT010 TEMPO 2604/2608 BKN010 TEMPO 2621/2624 3000 BR

Orai ataskaitas ir orų prognozės (METAR, TAF).

turimą stotys yra geltonos ir raudonos taškus žemėlapyje.

Perkelti pele per norėdami pamatyti stoties vardą.

Tada spustelėkite, norėdami matyti oro stebėjimo ir prognozės.

Norėdami pakeisti žemėlapį: spustelėkite ant žalios mygtukų su juodo kryžiaus žemyn,; žalią mygtuką su brūkšneliu, jei norite nutolinti; arba žalių rodyklių gretimoms žemėlapius.


METAR-TAF: